Bell M. Shimada — WTED — position and weather

sailwx.info

Track history (hours):
 
Tides and Currents Weather Stations Pressure Air Temp Water Temp Dewpoint Dewpoint Depression Visibility Wind Speed Wind Dir Waves Ship Positions

Oceanographic research ship Bell M. Shimada (USA)

Last reported at 2018-Jun-23 04:18 UTC. Time now 2018-Jun-23 04:45 UTC.
Position N 46°41' W 124°43'.

Length 63 m; draft 6.1 m.

Type: Ship. MMSI: 369970147.

Date/timePositionNaut miles runAvg speedWind from/ knotsBaromVisibWave heightAir tempDewpointWater temp
2018-Jun-23 04:18N 46°41' W 124°43'512.9
2018-Jun-23 03:55N 46°46' W 124°43'512.9
2018-Jun-23 03:30N 46°51' W 124°42'1112.7
2018-Jun-23 02:41N 47°02' W 124°41'812.8
2018-Jun-23 02:02N 47°10' W 124°39'013.1
2018-Jun-23 02:00N 47°10' W 124°39'23 2.4
2018-Jun-22 16:30N 47°33' W 124°34'2 1.0
2018-Jun-22 14:19N 47°31' W 124°31'1 2.8
2018-Jun-22 14:00N 47°32' W 124°31'1 1.0
2018-Jun-22 13:29N 47°32' W 124°30'1 2.3
2018-Jun-22 12:57N 47°32' W 124°32'1 1.0
2018-Jun-22 12:09N 47°32' W 124°32'10 1.9
2018-Jun-22 06:44N 47°21' W 124°30'33 9.0
2018-Jun-22 03:02N 47°43' W 125°08'111.3
2018-Jun-22 02:54N 47°44' W 125°07'910.3
2018-Jun-22 02:03N 47°53' W 125°10'0 9.1
2018-Jun-22 02:00N 47°53' W 125°10'15 1.0
2018-Jun-21 10:19N 47°55' W 124°48'15 3.2
2018-Jun-21 05:48N 48°10' W 124°49'1 1.7
2018-Jun-21 05:30N 48°10' W 124°50'2 4.6
2018-Jun-21 05:00N 48°10' W 124°53'2 4.4
2018-Jun-21 04:26N 48°10' W 124°57'2 4.0
2018-Jun-21 04:00N 48°10' W 124°60'2 4.0
2018-Jun-21 03:29N 48°10' W 125°03'2 4.3
2018-Jun-21 02:56N 48°10' W 125°06'2 3.2
2018-Jun-21 02:25N 48°11' W 125°08'2 3.4
2018-Jun-21 01:58N 48°13' W 125°08'2 3.4
2018-Jun-21 01:30N 48°14' W 125°08'6 4.1
2018-Jun-21 00:01N 48°11' W 125°00'0 7.7
2018-Jun-20 23:59N 48°11' W 124°60'1 1.9
2018-Jun-20 23:28N 48°12' W 124°59'2 3.8
2018-Jun-20 23:00N 48°13' W 124°58'3 2.9
2018-Jun-20 21:57N 48°11' W 124°57'2 3.2
2018-Jun-20 21:29N 48°12' W 124°56'2 4.5
2018-Jun-20 21:00N 48°14' W 124°56'4 5.5
2018-Jun-20 20:11N 48°11' W 124°52'1 3.2
2018-Jun-20 20:00N 48°11' W 124°52'2 3.6
2018-Jun-20 19:24N 48°13' W 124°52'2 3.8
2018-Jun-20 19:01N 48°15' W 124°51'3 4.4
2018-Jun-20 18:22N 48°12' W 124°51'0 0.5
2018-Jun-20 17:57N 48°12' W 124°51'1 2.9
2018-Jun-20 17:30N 48°13' W 124°51'2 3.2
2018-Jun-20 17:00N 48°15' W 124°51'2 3.7
2018-Jun-20 16:30N 48°16' W 124°49'1 2.0
2018-Jun-20 16:01N 48°15' W 124°48'3 3.9
2018-Jun-20 15:22N 48°13' W 124°48'2 2.3
2018-Jun-20 14:41N 48°11' W 124°48'2 8.5
2018-Jun-20 14:30N 48°12' W 124°51'1 1.9
2018-Jun-20 13:46N 48°13' W 124°53'1 4.1
2018-Jun-20 13:30N 48°13' W 124°51'2 2.6
2018-Jun-20 12:46N 48°13' W 124°48'1 1.1
2018-Jun-20 12:03N 48°14' W 124°48'1 2.8
2018-Jun-20 11:49N 48°15' W 124°47'2 6.7
2018-Jun-20 11:30N 48°17' W 124°46'3 5.6
2018-Jun-20 11:00N 48°19' W 124°45'0 0.3
2018-Jun-20 10:30N 48°19' W 124°44'0 0.2
2018-Jun-20 10:00N 48°19' W 124°44'0 0.2
2018-Jun-20 09:29N 48°19' W 124°44'2 4.1
2018-Jun-20 09:00N 48°19' W 124°47'510.3
2018-Jun-20 08:30N 48°19' W 124°55'511.0
2018-Jun-20 08:01N 48°19' W 125°03'4 7.9
2018-Jun-20 07:30N 48°20' W 125°09'510.6
2018-Jun-20 07:00N 48°26' W 125°06'511.3
2018-Jun-20 06:30N 48°30' W 125°02'510.7
2018-Jun-20 06:01N 48°32' W 124°54'511.0
2018-Jun-20 05:31N 48°31' W 124°46'510.3
2018-Jun-20 05:00N 48°29' W 124°39'5 9.8
2018-Jun-20 04:31N 48°27' W 124°32'5 9.6
2018-Jun-20 04:00N 48°26' W 124°25'5 9.5
2018-Jun-20 03:31N 48°24' W 124°18'1 1.1
2018-Jun-20 03:00N 48°25' W 124°17'4 8.1
2018-Jun-20 02:31N 48°22' W 124°13'510.0
2018-Jun-20 02:00N 48°20' W 124°06'1410.2
2018-Jun-20 00:39N 48°16' W 123°46'16 0.7
2018-Jun-19 03:01N 48°08' W 123°25'0 1.2
2018-Jun-19 02:45N 48°08' W 123°26'13 9.2
2018-Jun-19 01:23N 48°13' W 123°43'613.5
2018-Jun-19 00:58N 48°13' W 123°51'613.2
2018-Jun-19 00:30N 48°15' W 124°00'713.3
2018-Jun-19 00:01N 48°18' W 124°09'713.0
2018-Jun-18 23:30N 48°21' W 124°18'612.4
2018-Jun-18 23:00N 48°23' W 124°26'612.1
2018-Jun-18 22:30N 48°26' W 124°35'611.3
2018-Jun-18 22:00N 48°28' W 124°43'510.4
2018-Jun-18 21:30N 48°28' W 124°50'611.2
2018-Jun-18 21:00N 48°28' W 124°59'612.1
2018-Jun-18 20:30N 48°23' W 125°04'612.1
2018-Jun-18 20:00N 48°17' W 125°06'612.6
2018-Jun-18 19:31N 48°11' W 125°08'612.4
2018-Jun-18 19:00N 48°05' W 125°11'812.3
2018-Jun-18 18:23N 47°58' W 125°14'512.3
2018-Jun-18 18:01N 47°53' W 125°16'811.7
2018-Jun-18 17:21N 47°46' W 125°15'411.7
2018-Jun-18 17:00N 47°42' W 125°14'811.5
2018-Jun-18 16:18N 47°34' W 125°11'511.4
2018-Jun-18 15:54N 47°29' W 125°09'511.8
2018-Jun-18 15:31N 47°25' W 125°08'1411.9
2018-Jun-18 14:19N 47°11' W 125°04'411.7
2018-Jun-18 14:00N 47°07' W 125°03'611.5
2018-Jun-18 13:31N 47°02' W 125°01'611.4
2018-Jun-18 13:01N 46°57' W 124°58'611.2
2018-Jun-18 12:30N 46°51' W 124°56'611.3
2018-Jun-18 12:00N 46°45' W 124°55'611.3
2018-Jun-18 11:30N 46°40' W 124°53'611.4
2018-Jun-18 11:01N 46°35' W 124°51'611.4
2018-Jun-18 10:30N 46°29' W 124°49'611.6
2018-Jun-18 10:00N 46°23' W 124°47'612.0
2018-Jun-18 09:30N 46°17' W 124°46'611.5
2018-Jun-18 09:00N 46°12' W 124°44'611.4
2018-Jun-18 08:31N 46°06' W 124°42'611.2
2018-Jun-18 08:01N 46°01' W 124°40'611.2
2018-Jun-18 07:30N 45°55' W 124°38'611.1
2018-Jun-18 06:59N 45°50' W 124°36'510.8
2018-Jun-18 06:30N 45°45' W 124°34'510.9
2018-Jun-18 06:00N 45°39' W 124°32'611.1
2018-Jun-18 05:31N 45°34' W 124°30'611.1
2018-Jun-18 05:00N 45°29' W 124°28'611.2
2018-Jun-18 04:30N 45°23' W 124°27'611.2
2018-Jun-18 04:00N 45°18' W 124°25'611.3
2018-Jun-18 03:31N 45°12' W 124°23'611.2
2018-Jun-18 03:00N 45°07' W 124°21'1010.8
2018-Jun-18 02:06N 44°57' W 124°18'410.6
2018-Jun-18 01:44N 44°53' W 124°17'210.5
2018-Jun-18 01:30N 44°51' W 124°16'14 9.9
2018-Jun-18 00:06N 44°38' W 124°10'110.8
2018-Jun-18 00:00N 44°37' W 124°09'  
Track history (hours):
 
Tides and Currents Weather Stations Pressure Air Temp Water Temp Dewpoint Dewpoint Depression Visibility Wind Speed Wind Dir Waves Ship Positions

Oceanographic research ship Bell M. Shimada (USA)

Last reported at 2018-Jun-23 04:18 UTC. Time now 2018-Jun-23 04:45 UTC.
Position N 46°41' W 124°43'.

Length 63 m; draft 6.1 m.

Type: Ship. MMSI: 369970147.

Date/timePositionNaut miles runAvg speedWind from/ knotsBaromVisibWave heightAir tempDewpointWater temp
2018-Jun-23 04:18N 46°41' W 124°43'512.9
2018-Jun-23 03:55N 46°46' W 124°43'512.9
2018-Jun-23 03:30N 46°51' W 124°42'1112.7
2018-Jun-23 02:41N 47°02' W 124°41'812.8
2018-Jun-23 02:02N 47°10' W 124°39'013.1
2018-Jun-23 02:00N 47°10' W 124°39'23 2.4
2018-Jun-22 16:30N 47°33' W 124°34'2 1.0
2018-Jun-22 14:19N 47°31' W 124°31'1 2.8
2018-Jun-22 14:00N 47°32' W 124°31'1 1.0
2018-Jun-22 13:29N 47°32' W 124°30'1 2.3
2018-Jun-22 12:57N 47°32' W 124°32'1 1.0
2018-Jun-22 12:09N 47°32' W 124°32'10 1.9
2018-Jun-22 06:44N 47°21' W 124°30'33 9.0
2018-Jun-22 03:02N 47°43' W 125°08'111.3
2018-Jun-22 02:54N 47°44' W 125°07'910.3
2018-Jun-22 02:03N 47°53' W 125°10'0 9.1
2018-Jun-22 02:00N 47°53' W 125°10'15 1.0
2018-Jun-21 10:19N 47°55' W 124°48'15 3.2
2018-Jun-21 05:48N 48°10' W 124°49'1 1.7
2018-Jun-21 05:30N 48°10' W 124°50'2 4.6
2018-Jun-21 05:00N 48°10' W 124°53'2 4.4
2018-Jun-21 04:26N 48°10' W 124°57'2 4.0
2018-Jun-21 04:00N 48°10' W 124°60'2 4.0
2018-Jun-21 03:29N 48°10' W 125°03'2 4.3
2018-Jun-21 02:56N 48°10' W 125°06'2 3.2
2018-Jun-21 02:25N 48°11' W 125°08'2 3.4
2018-Jun-21 01:58N 48°13' W 125°08'2 3.4
2018-Jun-21 01:30N 48°14' W 125°08'6 4.1
2018-Jun-21 00:01N 48°11' W 125°00'0 7.7
2018-Jun-20 23:59N 48°11' W 124°60'1 1.9
2018-Jun-20 23:28N 48°12' W 124°59'2 3.8
2018-Jun-20 23:00N 48°13' W 124°58'3 2.9
2018-Jun-20 21:57N 48°11' W 124°57'2 3.2
2018-Jun-20 21:29N 48°12' W 124°56'2 4.5
2018-Jun-20 21:00N 48°14' W 124°56'4 5.5
2018-Jun-20 20:11N 48°11' W 124°52'1 3.2
2018-Jun-20 20:00N 48°11' W 124°52'2 3.6
2018-Jun-20 19:24N 48°13' W 124°52'2 3.8
2018-Jun-20 19:01N 48°15' W 124°51'3 4.4
2018-Jun-20 18:22N 48°12' W 124°51'0 0.5
2018-Jun-20 17:57N 48°12' W 124°51'1 2.9
2018-Jun-20 17:30N 48°13' W 124°51'2 3.2
2018-Jun-20 17:00N 48°15' W 124°51'2 3.7
2018-Jun-20 16:30N 48°16' W 124°49'1 2.0
2018-Jun-20 16:01N 48°15' W 124°48'3 3.9
2018-Jun-20 15:22N 48°13' W 124°48'2 2.3
2018-Jun-20 14:41N 48°11' W 124°48'2 8.5
2018-Jun-20 14:30N 48°12' W 124°51'1 1.9
2018-Jun-20 13:46N 48°13' W 124°53'1 4.1
2018-Jun-20 13:30N 48°13' W 124°51'2 2.6
2018-Jun-20 12:46N 48°13' W 124°48'1 1.1
2018-Jun-20 12:03N 48°14' W 124°48'1 2.8
2018-Jun-20 11:49N 48°15' W 124°47'2 6.7
2018-Jun-20 11:30N 48°17' W 124°46'3 5.6
2018-Jun-20 11:00N 48°19' W 124°45'0 0.3
2018-Jun-20 10:30N 48°19' W 124°44'0 0.2
2018-Jun-20 10:00N 48°19' W 124°44'0 0.2
2018-Jun-20 09:29N 48°19' W 124°44'2 4.1
2018-Jun-20 09:00N 48°19' W 124°47'510.3
2018-Jun-20 08:30N 48°19' W 124°55'511.0
2018-Jun-20 08:01N 48°19' W 125°03'4 7.9
2018-Jun-20 07:30N 48°20' W 125°09'510.6
2018-Jun-20 07:00N 48°26' W 125°06'511.3
2018-Jun-20 06:30N 48°30' W 125°02'510.7
2018-Jun-20 06:01N 48°32' W 124°54'511.0
2018-Jun-20 05:31N 48°31' W 124°46'510.3
2018-Jun-20 05:00N 48°29' W 124°39'5 9.8
2018-Jun-20 04:31N 48°27' W 124°32'5 9.6
2018-Jun-20 04:00N 48°26' W 124°25'5 9.5
2018-Jun-20 03:31N 48°24' W 124°18'1 1.1
2018-Jun-20 03:00N 48°25' W 124°17'4 8.1
2018-Jun-20 02:31N 48°22' W 124°13'510.0
2018-Jun-20 02:00N 48°20' W 124°06'1410.2
2018-Jun-20 00:39N 48°16' W 123°46'16 0.7
2018-Jun-19 03:01N 48°08' W 123°25'0 1.2
2018-Jun-19 02:45N 48°08' W 123°26'13 9.2
2018-Jun-19 01:23N 48°13' W 123°43'613.5
2018-Jun-19 00:58N 48°13' W 123°51'613.2
2018-Jun-19 00:30N 48°15' W 124°00'713.3
2018-Jun-19 00:01N 48°18' W 124°09'713.0
2018-Jun-18 23:30N 48°21' W 124°18'612.4
2018-Jun-18 23:00N 48°23' W 124°26'612.1
2018-Jun-18 22:30N 48°26' W 124°35'611.3
2018-Jun-18 22:00N 48°28' W 124°43'510.4
2018-Jun-18 21:30N 48°28' W 124°50'611.2
2018-Jun-18 21:00N 48°28' W 124°59'612.1
2018-Jun-18 20:30N 48°23' W 125°04'612.1
2018-Jun-18 20:00N 48°17' W 125°06'612.6
2018-Jun-18 19:31N 48°11' W 125°08'612.4
2018-Jun-18 19:00N 48°05' W 125°11'812.3
2018-Jun-18 18:23N 47°58' W 125°14'512.3
2018-Jun-18 18:01N 47°53' W 125°16'811.7
2018-Jun-18 17:21N 47°46' W 125°15'411.7
2018-Jun-18 17:00N 47°42' W 125°14'811.5
2018-Jun-18 16:18N 47°34' W 125°11'511.4
2018-Jun-18 15:54N 47°29' W 125°09'511.8
2018-Jun-18 15:31N 47°25' W 125°08'1411.9
2018-Jun-18 14:19N 47°11' W 125°04'411.7
2018-Jun-18 14:00N 47°07' W 125°03'611.5
2018-Jun-18 13:31N 47°02' W 125°01'611.4
2018-Jun-18 13:01N 46°57' W 124°58'611.2
2018-Jun-18 12:30N 46°51' W 124°56'611.3
2018-Jun-18 12:00N 46°45' W 124°55'611.3
2018-Jun-18 11:30N 46°40' W 124°53'611.4
2018-Jun-18 11:01N 46°35' W 124°51'611.4
2018-Jun-18 10:30N 46°29' W 124°49'611.6
2018-Jun-18 10:00N 46°23' W 124°47'612.0
2018-Jun-18 09:30N 46°17' W 124°46'611.5
2018-Jun-18 09:00N 46°12' W 124°44'611.4
2018-Jun-18 08:31N 46°06' W 124°42'611.2
2018-Jun-18 08:01N 46°01' W 124°40'611.2
2018-Jun-18 07:30N 45°55' W 124°38'611.1
2018-Jun-18 06:59N 45°50' W 124°36'510.8
2018-Jun-18 06:30N 45°45' W 124°34'510.9
2018-Jun-18 06:00N 45°39' W 124°32'611.1
2018-Jun-18 05:31N 45°34' W 124°30'611.1
2018-Jun-18 05:00N 45°29' W 124°28'611.2
2018-Jun-18 04:30N 45°23' W 124°27'611.2
2018-Jun-18 04:00N 45°18' W 124°25'611.3
2018-Jun-18 03:31N 45°12' W 124°23'611.2
2018-Jun-18 03:00N 45°07' W 124°21'1010.8
2018-Jun-18 02:06N 44°57' W 124°18'410.6
2018-Jun-18 01:44N 44°53' W 124°17'210.5
2018-Jun-18 01:30N 44°51' W 124°16'14 9.9
2018-Jun-18 00:06N 44°38' W 124°10'110.8
2018-Jun-18 00:00N 44°37' W 124°09'  

Dump ship's entire track history